| Date | Time | Temp. (oF) | Dew Point (oF) | Rel. Hum. (%) | Press. (in.) | Wind Dir. | Wind Speed (mph) | Hourly Rainfall (in.) |
|
|---|---|---|---|---|---|---|---|---|---|
| 1 | 05/02 | 00:00 | 45 | 36 | 73 | 30.04 | WNW | 0 | 0.00 |
| 2 | 05/01 | 23:00 | 48 | 35 | 63 | 30.05 | WNW | 1 | 0.00 |
| 3 | 05/01 | 22:00 | 51 | 34 | 54 | 30.03 | NW | 3 | 0.00 |
| 4 | 05/01 | 21:00 | 54 | 34 | 48 | 30.00 | NNW | 6 | 0.00 |
| 5 | 05/01 | 20:00 | 57 | 35 | 44 | 29.96 | WNW | 4 | 0.00 |
| 6 | 05/01 | 19:00 | 59 | 33 | 39 | 29.92 | NW | 7 | 0.00 |
| 7 | 05/01 | 18:00 | 60 | 34 | 39 | 29.91 | SSW | 5 | 0.00 |
| 8 | 05/01 | 17:00 | 61 | 36 | 41 | 29.92 | WSW | 4 | 0.00 |
| 9 | 05/01 | 16:00 | 61 | 37 | 42 | 29.91 | WNW | 6 | 0.00 |
| 10 | 05/01 | 15:00 | 61 | 37 | 42 | 29.91 | SW | 6 | 0.00 |
| 11 | 05/01 | 14:00 | 62 | 40 | 46 | 29.88 | W | 15 | 0.00 |
| 12 | 05/01 | 13:00 | 59 | 41 | 52 | 29.89 | NW | 11 | 0.00 |
| 13 | 05/01 | 12:00 | 57 | 42 | 58 | 29.90 | WNW | 10 | 0.00 |
| 14 | 05/01 | 11:00 | 54 | 40 | 61 | 29.91 | WNW | 8 | 0.00 |
| 15 | 05/01 | 10:00 | 51 | 44 | 77 | 29.91 | SW | 7 | 0.00 |
| 16 | 05/01 | 09:00 | 50 | 45 | 85 | 29.90 | WNW | 10 | 0.00 |
| 17 | 05/01 | 08:00 | 50 | 45 | 86 | 29.88 | W | 6 | 0.00 |
| 18 | 05/01 | 07:00 | 51 | 47 | 87 | 29.86 | WNW | 9 | 0.00 |
| 19 | 05/01 | 06:00 | 53 | 48 | 85 | 29.83 | WNW | 8 | 0.00 |
| 20 | 05/01 | 05:00 | 54 | 51 | 90 | 29.83 | WNW | 4 | 0.00 |
| 21 | 05/01 | 04:00 | 54 | 52 | 95 | 29.81 | W | 6 | 0.00 |
| 22 | 05/01 | 03:00 | 55 | 54 | 100 | 29.80 | WNW | 5 | 0.00 |
| 23 | 05/01 | 02:00 | 56 | 55 | 100 | 29.80 | WNW | 8 | 0.00 |
| 24 | 05/01 | 01:00 | 57 | 57 | 100 | 29.79 | WNW | 3 | 0.00 |